Decoded Metar for CYBU (NIPAWIN AIRPORT in SK, CANADA) (IATA:YBU) | Meteo·Mobile Aviation Weather
aviador You're here:

CYBU Decoded Metar

NIPAWIN AIRPORT in SK, CANADA
Report Time2019-07-24 04:00:00
UTC Time2019-07-24 04:18:18
Flight Rules vfr VFR
Wind160° at 05 kt
W.Decomp.*RWY 12: 4.3 kt HW 2.6 kt RCW
RWY 21: 2.6 kt HW 4.3 kt LCW
Visibility9999 m
Phenomena:N/A
Clouds:N/A
Expected CloudBase > 800 ft AGL from Temp-Dew spread
CeilingNone
Temp20°C (ISA +7)
Dew Point18°C (88% RH)
QNH1016 hPa
Density Alt2,274 ft
Elevation1,227 ft
Report Wrong Elevation
Raw Report
CYBU 240400Z AUTO 16005KT 9SM CLR 20/18 A2999 RMK SLP160 DENSITY
ALT 1900FT=

Extra information for CYBU:More info

Metar Taf Metar & Taf Last 4 Metars F.Rules Stats Wind Profile Meteogram Temp Stats Airport Information Weather charts Add Link Nearby VenuesMetar ALERT Operation Metar Decoded Social comments